Port Perry, Canada
Current Conditions -  °F | °C
As of 2:00 PM on Saturday 20 Dec 2014 (Local Time) from CYOO Reporting Station
Clear Clear  
Wind Chill: 24°   Ceiling: Unl
Heat Index: 30°   Visibility: 9mi
Dew Point: 21°   Wind: 6mph
Humidity: 69%   Direction: 160°SSE
Pressure: 30.24"   Gusts: NA
Location:  44.1°N, 78.93°W
Report Text: CYOO 201900Z AUTO 16005KT 9SM CLR M01/M06 A3024 RMK SLP250
Loading
Personal Weather Stations






























Interactive Weather Map New forecast layout! Learn more

10-Day Weather Forecast

Advertisements
Track Severe Weather on mobile